sensor_id;sensor_type;location;lat;lon;timestamp;P1;durP1;ratioP1;P2;durP2;ratioP2
21360;SDS011;10839;43.206;23.550;2023-12-22T00:00:17;9.70;;;4.88;;
21360;SDS011;10839;43.206;23.550;2023-12-22T00:02:42;10.18;;;4.97;;
21360;SDS011;10839;43.206;23.550;2023-12-22T00:05:08;9.80;;;4.78;;
21360;SDS011;10839;43.206;23.550;2023-12-22T00:07:33;9.13;;;4.47;;
21360;SDS011;10839;43.206;23.550;2023-12-22T00:09:59;10.40;;;4.57;;
21360;SDS011;10839;43.206;23.550;2023-12-22T00:12:24;9.07;;;4.18;;
21360;SDS011;10839;43.206;23.550;2023-12-22T00:14:50;8.90;;;4.72;;
21360;SDS011;10839;43.206;23.550;2023-12-22T00:17:15;7.85;;;4.40;;
21360;SDS011;10839;43.206;23.550;2023-12-22T00:19:41;7.55;;;4.00;;
21360;SDS011;10839;43.206;23.550;2023-12-22T00:22:06;9.98;;;4.70;;
21360;SDS011;10839;43.206;23.550;2023-12-22T00:24:31;11.48;;;4.97;;
21360;SDS011;10839;43.206;23.550;2023-12-22T00:26:57;5.35;;;3.38;;
21360;SDS011;10839;43.206;23.550;2023-12-22T00:29:23;6.13;;;3.20;;
21360;SDS011;10839;43.206;23.550;2023-12-22T00:31:48;14.88;;;5.88;;
21360;SDS011;10839;43.206;23.550;2023-12-22T00:34:14;5.38;;;2.78;;
21360;SDS011;10839;43.206;23.550;2023-12-22T00:36:39;3.85;;;1.85;;
21360;SDS011;10839;43.206;23.550;2023-12-22T00:39:05;14.38;;;6.55;;
21360;SDS011;10839;43.206;23.550;2023-12-22T00:41:30;11.75;;;6.63;;
21360;SDS011;10839;43.206;23.550;2023-12-22T00:43:55;10.48;;;5.10;;
21360;SDS011;10839;43.206;23.550;2023-12-22T00:46:21;8.70;;;3.88;;
21360;SDS011;10839;43.206;23.550;2023-12-22T00:48:46;8.90;;;4.60;;
21360;SDS011;10839;43.206;23.550;2023-12-22T00:51:12;4.80;;;2.92;;
21360;SDS011;10839;43.206;23.550;2023-12-22T00:53:37;4.35;;;2.10;;
21360;SDS011;10839;43.206;23.550;2023-12-22T00:56:03;2.58;;;1.63;;
21360;SDS011;10839;43.206;23.550;2023-12-22T00:58:29;2.92;;;1.83;;
21360;SDS011;10839;43.206;23.550;2023-12-22T01:00:55;2.17;;;1.63;;
21360;SDS011;10839;43.206;23.550;2023-12-22T01:03:21;2.72;;;1.58;;
21360;SDS011;10839;43.206;23.550;2023-12-22T01:05:46;5.20;;;2.78;;
21360;SDS011;10839;43.206;23.550;2023-12-22T01:08:12;5.25;;;2.28;;
21360;SDS011;10839;43.206;23.550;2023-12-22T01:10:37;7.13;;;3.90;;
21360;SDS011;10839;43.206;23.550;2023-12-22T01:13:03;9.80;;;4.45;;
21360;SDS011;10839;43.206;23.550;2023-12-22T01:15:28;7.07;;;3.03;;
21360;SDS011;10839;43.206;23.550;2023-12-22T01:17:54;3.22;;;1.98;;
21360;SDS011;10839;43.206;23.550;2023-12-22T01:20:19;3.22;;;2.10;;
21360;SDS011;10839;43.206;23.550;2023-12-22T01:22:45;3.60;;;1.70;;
21360;SDS011;10839;43.206;23.550;2023-12-22T01:25:10;2.55;;;1.48;;
21360;SDS011;10839;43.206;23.550;2023-12-22T01:27:36;4.78;;;2.63;;
21360;SDS011;10839;43.206;23.550;2023-12-22T01:30:01;4.05;;;2.28;;
21360;SDS011;10839;43.206;23.550;2023-12-22T01:32:27;4.50;;;2.22;;
21360;SDS011;10839;43.206;23.550;2023-12-22T01:34:58;3.33;;;2.20;;
21360;SDS011;10839;43.206;23.550;2023-12-22T01:37:25;4.78;;;2.50;;
21360;SDS011;10839;43.206;23.550;2023-12-22T01:39:50;6.88;;;2.30;;
21360;SDS011;10839;43.206;23.550;2023-12-22T01:42:16;5.43;;;2.60;;
21360;SDS011;10839;43.206;23.550;2023-12-22T01:44:41;6.35;;;2.90;;
21360;SDS011;10839;43.206;23.550;2023-12-22T01:47:07;2.80;;;1.55;;
21360;SDS011;10839;43.206;23.550;2023-12-22T01:49:32;5.07;;;2.25;;
21360;SDS011;10839;43.206;23.550;2023-12-22T01:51:58;4.60;;;2.30;;
21360;SDS011;10839;43.206;23.550;2023-12-22T01:54:24;5.28;;;2.00;;
21360;SDS011;10839;43.206;23.550;2023-12-22T01:56:50;4.55;;;2.22;;
21360;SDS011;10839;43.206;23.550;2023-12-22T01:59:15;5.20;;;2.22;;
21360;SDS011;10839;43.206;23.550;2023-12-22T02:01:41;6.30;;;2.20;;
21360;SDS011;10839;43.206;23.550;2023-12-22T02:04:09;3.83;;;2.05;;
21360;SDS011;10839;43.206;23.550;2023-12-22T02:06:35;3.75;;;2.13;;
21360;SDS011;10839;43.206;23.550;2023-12-22T02:09:01;3.97;;;1.73;;
21360;SDS011;10839;43.206;23.550;2023-12-22T02:11:27;2.55;;;1.50;;
21360;SDS011;10839;43.206;23.550;2023-12-22T02:13:52;2.67;;;1.77;;
21360;SDS011;10839;43.206;23.550;2023-12-22T02:16:24;3.00;;;1.50;;
21360;SDS011;10839;43.206;23.550;2023-12-22T02:18:56;3.05;;;1.80;;
21360;SDS011;10839;43.206;23.550;2023-12-22T02:21:24;2.58;;;1.70;;
21360;SDS011;10839;43.206;23.550;2023-12-22T02:23:50;2.05;;;1.45;;
21360;SDS011;10839;43.206;23.550;2023-12-22T02:26:22;3.35;;;2.10;;
21360;SDS011;10839;43.206;23.550;2023-12-22T02:28:55;4.32;;;2.40;;
21360;SDS011;10839;43.206;23.550;2023-12-22T02:31:25;2.60;;;1.70;;
21360;SDS011;10839;43.206;23.550;2023-12-22T02:34:01;3.08;;;1.65;;
21360;SDS011;10839;43.206;23.550;2023-12-22T02:36:33;2.30;;;1.38;;
21360;SDS011;10839;43.206;23.550;2023-12-22T02:39:01;1.95;;;1.48;;
21360;SDS011;10839;43.206;23.550;2023-12-22T02:41:27;2.83;;;1.80;;
21360;SDS011;10839;43.206;23.550;2023-12-22T02:43:53;2.95;;;1.70;;
21360;SDS011;10839;43.206;23.550;2023-12-22T02:46:18;4.15;;;2.35;;
21360;SDS011;10839;43.206;23.550;2023-12-22T02:48:44;3.15;;;1.90;;
21360;SDS011;10839;43.206;23.550;2023-12-22T02:51:09;2.22;;;1.50;;
21360;SDS011;10839;43.206;23.550;2023-12-22T02:53:35;2.05;;;1.38;;
21360;SDS011;10839;43.206;23.550;2023-12-22T02:56:00;3.95;;;1.80;;
21360;SDS011;10839;43.206;23.550;2023-12-22T02:58:26;2.17;;;1.60;;
21360;SDS011;10839;43.206;23.550;2023-12-22T03:00:51;3.38;;;2.00;;
21360;SDS011;10839;43.206;23.550;2023-12-22T03:03:16;2.30;;;2.00;;
21360;SDS011;10839;43.206;23.550;2023-12-22T03:05:42;2.75;;;2.05;;
21360;SDS011;10839;43.206;23.550;2023-12-22T03:08:07;2.63;;;1.85;;
21360;SDS011;10839;43.206;23.550;2023-12-22T03:10:33;2.90;;;2.28;;
21360;SDS011;10839;43.206;23.550;2023-12-22T03:12:58;2.67;;;1.88;;
21360;SDS011;10839;43.206;23.550;2023-12-22T03:15:24;3.25;;;2.08;;
21360;SDS011;10839;43.206;23.550;2023-12-22T03:17:49;3.35;;;2.25;;
21360;SDS011;10839;43.206;23.550;2023-12-22T03:20:15;3.13;;;1.90;;
21360;SDS011;10839;43.206;23.550;2023-12-22T03:22:40;6.55;;;2.72;;
21360;SDS011;10839;43.206;23.550;2023-12-22T03:25:06;3.50;;;2.45;;
21360;SDS011;10839;43.206;23.550;2023-12-22T03:27:31;4.45;;;2.67;;
21360;SDS011;10839;43.206;23.550;2023-12-22T03:29:57;4.38;;;2.70;;
21360;SDS011;10839;43.206;23.550;2023-12-22T03:32:22;4.53;;;1.95;;
21360;SDS011;10839;43.206;23.550;2023-12-22T03:34:48;2.75;;;1.98;;
21360;SDS011;10839;43.206;23.550;2023-12-22T03:37:13;2.38;;;1.95;;
21360;SDS011;10839;43.206;23.550;2023-12-22T03:39:39;4.65;;;2.95;;
21360;SDS011;10839;43.206;23.550;2023-12-22T03:42:04;3.78;;;2.17;;
21360;SDS011;10839;43.206;23.550;2023-12-22T03:44:30;4.97;;;3.00;;
21360;SDS011;10839;43.206;23.550;2023-12-22T03:46:56;3.70;;;2.40;;
21360;SDS011;10839;43.206;23.550;2023-12-22T03:49:22;3.10;;;1.60;;
21360;SDS011;10839;43.206;23.550;2023-12-22T03:51:47;1.73;;;1.27;;
21360;SDS011;10839;43.206;23.550;2023-12-22T03:54:13;1.70;;;1.20;;
21360;SDS011;10839;43.206;23.550;2023-12-22T03:56:41;2.00;;;1.50;;
21360;SDS011;10839;43.206;23.550;2023-12-22T03:59:06;1.55;;;1.27;;
21360;SDS011;10839;43.206;23.550;2023-12-22T04:01:31;1.48;;;1.30;;
21360;SDS011;10839;43.206;23.550;2023-12-22T04:03:57;1.15;;;1.05;;
21360;SDS011;10839;43.206;23.550;2023-12-22T04:06:23;3.42;;;1.77;;
21360;SDS011;10839;43.206;23.550;2023-12-22T04:08:48;1.30;;;1.00;;
21360;SDS011;10839;43.206;23.550;2023-12-22T04:11:14;2.00;;;1.10;;
21360;SDS011;10839;43.206;23.550;2023-12-22T04:13:39;1.05;;;0.90;;
21360;SDS011;10839;43.206;23.550;2023-12-22T04:16:05;2.03;;;1.05;;
21360;SDS011;10839;43.206;23.550;2023-12-22T04:18:30;1.70;;;1.15;;
21360;SDS011;10839;43.206;23.550;2023-12-22T04:20:57;1.73;;;1.40;;
21360;SDS011;10839;43.206;23.550;2023-12-22T04:23:22;1.55;;;1.10;;
21360;SDS011;10839;43.206;23.550;2023-12-22T04:25:47;1.98;;;1.45;;
21360;SDS011;10839;43.206;23.550;2023-12-22T04:28:13;1.23;;;1.10;;
21360;SDS011;10839;43.206;23.550;2023-12-22T04:30:39;2.45;;;1.17;;
21360;SDS011;10839;43.206;23.550;2023-12-22T04:33:04;1.50;;;1.10;;
21360;SDS011;10839;43.206;23.550;2023-12-22T04:35:30;1.92;;;1.10;;
21360;SDS011;10839;43.206;23.550;2023-12-22T04:37:56;1.30;;;1.20;;
21360;SDS011;10839;43.206;23.550;2023-12-22T04:40:21;4.85;;;2.70;;
21360;SDS011;10839;43.206;23.550;2023-12-22T04:42:47;2.97;;;1.77;;
21360;SDS011;10839;43.206;23.550;2023-12-22T04:45:12;3.17;;;1.92;;
21360;SDS011;10839;43.206;23.550;2023-12-22T04:47:38;2.97;;;1.33;;
21360;SDS011;10839;43.206;23.550;2023-12-22T04:50:03;2.45;;;1.60;;
21360;SDS011;10839;43.206;23.550;2023-12-22T04:52:29;2.80;;;2.00;;
21360;SDS011;10839;43.206;23.550;2023-12-22T04:54:55;4.32;;;2.00;;
21360;SDS011;10839;43.206;23.550;2023-12-22T04:57:21;3.95;;;2.08;;
21360;SDS011;10839;43.206;23.550;2023-12-22T04:59:47;15.10;;;5.32;;
21360;SDS011;10839;43.206;23.550;2023-12-22T05:02:13;5.25;;;3.13;;
21360;SDS011;10839;43.206;23.550;2023-12-22T05:04:38;5.03;;;2.92;;
21360;SDS011;10839;43.206;23.550;2023-12-22T05:07:04;10.38;;;5.68;;
21360;SDS011;10839;43.206;23.550;2023-12-22T05:09:32;3.58;;;2.28;;
21360;SDS011;10839;43.206;23.550;2023-12-22T05:11:59;5.75;;;3.05;;
21360;SDS011;10839;43.206;23.550;2023-12-22T05:14:24;2.70;;;1.52;;
21360;SDS011;10839;43.206;23.550;2023-12-22T05:16:50;2.28;;;1.50;;
21360;SDS011;10839;43.206;23.550;2023-12-22T05:19:20;2.58;;;1.60;;
21360;SDS011;10839;43.206;23.550;2023-12-22T05:21:45;2.28;;;1.75;;
21360;SDS011;10839;43.206;23.550;2023-12-22T05:24:11;1.75;;;1.50;;
21360;SDS011;10839;43.206;23.550;2023-12-22T05:26:36;4.10;;;1.73;;
21360;SDS011;10839;43.206;23.550;2023-12-22T05:29:02;2.17;;;1.30;;
21360;SDS011;10839;43.206;23.550;2023-12-22T05:31:27;2.88;;;1.45;;
21360;SDS011;10839;43.206;23.550;2023-12-22T05:33:53;1.58;;;1.40;;
21360;SDS011;10839;43.206;23.550;2023-12-22T05:36:19;1.80;;;1.50;;
21360;SDS011;10839;43.206;23.550;2023-12-22T05:38:45;4.60;;;2.15;;
21360;SDS011;10839;43.206;23.550;2023-12-22T05:41:12;2.97;;;2.05;;
21360;SDS011;10839;43.206;23.550;2023-12-22T05:43:38;2.20;;;1.33;;
21360;SDS011;10839;43.206;23.550;2023-12-22T05:46:04;3.50;;;1.40;;
21360;SDS011;10839;43.206;23.550;2023-12-22T05:48:29;1.58;;;1.20;;
21360;SDS011;10839;43.206;23.550;2023-12-22T05:50:58;3.05;;;1.60;;
21360;SDS011;10839;43.206;23.550;2023-12-22T05:53:23;1.92;;;1.30;;
21360;SDS011;10839;43.206;23.550;2023-12-22T05:55:48;3.17;;;1.83;;
21360;SDS011;10839;43.206;23.550;2023-12-22T05:58:14;8.15;;;4.68;;
21360;SDS011;10839;43.206;23.550;2023-12-22T06:00:40;4.78;;;1.70;;
21360;SDS011;10839;43.206;23.550;2023-12-22T06:03:05;2.08;;;1.00;;
21360;SDS011;10839;43.206;23.550;2023-12-22T06:05:31;3.85;;;1.90;;
21360;SDS011;10839;43.206;23.550;2023-12-22T06:07:56;4.00;;;1.80;;
21360;SDS011;10839;43.206;23.550;2023-12-22T06:10:22;5.32;;;2.60;;
21360;SDS011;10839;43.206;23.550;2023-12-22T06:12:47;4.40;;;2.03;;
21360;SDS011;10839;43.206;23.550;2023-12-22T06:15:13;1.92;;;1.58;;
21360;SDS011;10839;43.206;23.550;2023-12-22T06:17:38;2.83;;;2.15;;
21360;SDS011;10839;43.206;23.550;2023-12-22T06:20:04;5.43;;;2.75;;
21360;SDS011;10839;43.206;23.550;2023-12-22T06:22:30;2.50;;;1.38;;
21360;SDS011;10839;43.206;23.550;2023-12-22T06:24:55;4.32;;;2.53;;
21360;SDS011;10839;43.206;23.550;2023-12-22T06:27:21;8.23;;;4.38;;
21360;SDS011;10839;43.206;23.550;2023-12-22T06:29:46;2.35;;;2.00;;
21360;SDS011;10839;43.206;23.550;2023-12-22T06:32:12;4.07;;;1.67;;
21360;SDS011;10839;43.206;23.550;2023-12-22T06:34:37;4.90;;;2.67;;
21360;SDS011;10839;43.206;23.550;2023-12-22T06:37:03;7.65;;;3.35;;
21360;SDS011;10839;43.206;23.550;2023-12-22T06:39:28;4.50;;;2.08;;
21360;SDS011;10839;43.206;23.550;2023-12-22T06:41:54;6.18;;;2.80;;
21360;SDS011;10839;43.206;23.550;2023-12-22T06:44:19;6.28;;;3.05;;
21360;SDS011;10839;43.206;23.550;2023-12-22T06:46:45;6.05;;;3.03;;
21360;SDS011;10839;43.206;23.550;2023-12-22T06:49:10;7.40;;;3.33;;
21360;SDS011;10839;43.206;23.550;2023-12-22T06:51:36;4.63;;;2.83;;
21360;SDS011;10839;43.206;23.550;2023-12-22T06:54:02;6.63;;;3.67;;
21360;SDS011;10839;43.206;23.550;2023-12-22T06:56:33;5.70;;;2.67;;
21360;SDS011;10839;43.206;23.550;2023-12-22T06:58:59;5.35;;;2.90;;
21360;SDS011;10839;43.206;23.550;2023-12-22T07:01:27;5.03;;;2.45;;
21360;SDS011;10839;43.206;23.550;2023-12-22T07:03:53;8.00;;;3.60;;
21360;SDS011;10839;43.206;23.550;2023-12-22T07:06:20;5.97;;;3.33;;
21360;SDS011;10839;43.206;23.550;2023-12-22T07:11:27;8.85;;;4.25;;
21360;SDS011;10839;43.206;23.550;2023-12-22T07:13:53;12.07;;;5.60;;
21360;SDS011;10839;43.206;23.550;2023-12-22T07:16:19;5.18;;;2.92;;
21360;SDS011;10839;43.206;23.550;2023-12-22T07:18:44;3.67;;;2.08;;
21360;SDS011;10839;43.206;23.550;2023-12-22T07:21:15;3.95;;;2.45;;
21360;SDS011;10839;43.206;23.550;2023-12-22T07:23:41;1.95;;;1.67;;
21360;SDS011;10839;43.206;23.550;2023-12-22T07:26:09;2.65;;;2.10;;
21360;SDS011;10839;43.206;23.550;2023-12-22T07:28:38;2.53;;;2.10;;
21360;SDS011;10839;43.206;23.550;2023-12-22T07:31:04;3.50;;;2.10;;
21360;SDS011;10839;43.206;23.550;2023-12-22T07:33:30;3.67;;;2.00;;
21360;SDS011;10839;43.206;23.550;2023-12-22T07:35:56;5.03;;;2.40;;
21360;SDS011;10839;43.206;23.550;2023-12-22T07:38:21;3.80;;;2.03;;
21360;SDS011;10839;43.206;23.550;2023-12-22T07:40:47;17.45;;;9.40;;
21360;SDS011;10839;43.206;23.550;2023-12-22T07:43:12;7.57;;;5.47;;
21360;SDS011;10839;43.206;23.550;2023-12-22T07:45:38;3.25;;;2.00;;
21360;SDS011;10839;43.206;23.550;2023-12-22T07:48:04;4.85;;;3.00;;
21360;SDS011;10839;43.206;23.550;2023-12-22T07:50:29;1.42;;;1.33;;
21360;SDS011;10839;43.206;23.550;2023-12-22T07:52:55;1.73;;;1.10;;
21360;SDS011;10839;43.206;23.550;2023-12-22T07:55:20;2.10;;;0.98;;
21360;SDS011;10839;43.206;23.550;2023-12-22T07:57:46;1.40;;;1.00;;
21360;SDS011;10839;43.206;23.550;2023-12-22T08:00:11;1.38;;;1.00;;
21360;SDS011;10839;43.206;23.550;2023-12-22T08:02:37;3.05;;;1.92;;
21360;SDS011;10839;43.206;23.550;2023-12-22T08:05:03;2.80;;;1.80;;
21360;SDS011;10839;43.206;23.550;2023-12-22T08:07:29;4.45;;;1.75;;
21360;SDS011;10839;43.206;23.550;2023-12-22T08:09:55;3.67;;;2.00;;
21360;SDS011;10839;43.206;23.550;2023-12-22T08:12:28;5.18;;;2.33;;
21360;SDS011;10839;43.206;23.550;2023-12-22T08:14:53;6.18;;;2.67;;
21360;SDS011;10839;43.206;23.550;2023-12-22T08:17:19;2.85;;;1.42;;
21360;SDS011;10839;43.206;23.550;2023-12-22T08:19:45;15.20;;;8.38;;
21360;SDS011;10839;43.206;23.550;2023-12-22T08:22:10;36.60;;;20.83;;
21360;SDS011;10839;43.206;23.550;2023-12-22T08:24:38;5.35;;;3.03;;
21360;SDS011;10839;43.206;23.550;2023-12-22T08:27:07;5.65;;;3.35;;
21360;SDS011;10839;43.206;23.550;2023-12-22T08:29:33;2.65;;;1.63;;
21360;SDS011;10839;43.206;23.550;2023-12-22T08:31:58;3.17;;;1.77;;
21360;SDS011;10839;43.206;23.550;2023-12-22T08:34:25;2.88;;;1.30;;
21360;SDS011;10839;43.206;23.550;2023-12-22T08:36:51;2.92;;;1.25;;
21360;SDS011;10839;43.206;23.550;2023-12-22T08:39:16;1.52;;;1.00;;
21360;SDS011;10839;43.206;23.550;2023-12-22T08:41:42;5.85;;;1.75;;
21360;SDS011;10839;43.206;23.550;2023-12-22T08:44:08;1.20;;;0.90;;
21360;SDS011;10839;43.206;23.550;2023-12-22T08:46:34;1.77;;;1.05;;
21360;SDS011;10839;43.206;23.550;2023-12-22T08:48:59;0.85;;;0.73;;
21360;SDS011;10839;43.206;23.550;2023-12-22T08:51:25;1.88;;;0.85;;
21360;SDS011;10839;43.206;23.550;2023-12-22T08:53:51;5.38;;;2.17;;
21360;SDS011;10839;43.206;23.550;2023-12-22T08:56:19;9.77;;;5.03;;
21360;SDS011;10839;43.206;23.550;2023-12-22T08:58:46;8.90;;;3.25;;
21360;SDS011;10839;43.206;23.550;2023-12-22T09:01:15;11.23;;;3.55;;
21360;SDS011;10839;43.206;23.550;2023-12-22T09:03:41;4.68;;;2.10;;
21360;SDS011;10839;43.206;23.550;2023-12-22T09:06:11;2.65;;;1.60;;
21360;SDS011;10839;43.206;23.550;2023-12-22T09:08:41;3.35;;;1.73;;
21360;SDS011;10839;43.206;23.550;2023-12-22T09:11:13;12.13;;;6.32;;
21360;SDS011;10839;43.206;23.550;2023-12-22T09:13:40;10.00;;;5.35;;
21360;SDS011;10839;43.206;23.550;2023-12-22T09:16:07;10.30;;;6.78;;
21360;SDS011;10839;43.206;23.550;2023-12-22T09:18:33;6.43;;;3.20;;
21360;SDS011;10839;43.206;23.550;2023-12-22T09:20:59;2.85;;;2.20;;
21360;SDS011;10839;43.206;23.550;2023-12-22T09:23:25;3.28;;;1.80;;
21360;SDS011;10839;43.206;23.550;2023-12-22T09:25:50;5.20;;;2.65;;
21360;SDS011;10839;43.206;23.550;2023-12-22T09:28:16;3.22;;;1.63;;
21360;SDS011;10839;43.206;23.550;2023-12-22T09:30:41;4.85;;;2.42;;
21360;SDS011;10839;43.206;23.550;2023-12-22T09:33:07;3.53;;;1.20;;
21360;SDS011;10839;43.206;23.550;2023-12-22T09:35:34;1.45;;;0.95;;
21360;SDS011;10839;43.206;23.550;2023-12-22T09:38:00;2.55;;;1.42;;
21360;SDS011;10839;43.206;23.550;2023-12-22T09:40:25;1.50;;;0.90;;
21360;SDS011;10839;43.206;23.550;2023-12-22T09:42:52;1.27;;;0.90;;
21360;SDS011;10839;43.206;23.550;2023-12-22T09:45:20;3.15;;;2.10;;
21360;SDS011;10839;43.206;23.550;2023-12-22T09:47:46;4.60;;;2.70;;
21360;SDS011;10839;43.206;23.550;2023-12-22T09:50:14;2.58;;;1.67;;
21360;SDS011;10839;43.206;23.550;2023-12-22T09:52:41;3.70;;;2.20;;
21360;SDS011;10839;43.206;23.550;2023-12-22T09:55:09;3.53;;;1.58;;
21360;SDS011;10839;43.206;23.550;2023-12-22T09:57:35;1.20;;;0.80;;
21360;SDS011;10839;43.206;23.550;2023-12-22T10:00:02;0.50;;;0.50;;
21360;SDS011;10839;43.206;23.550;2023-12-22T10:02:32;2.22;;;1.30;;
21360;SDS011;10839;43.206;23.550;2023-12-22T10:04:58;3.88;;;1.63;;
21360;SDS011;10839;43.206;23.550;2023-12-22T10:07:24;1.75;;;1.08;;
21360;SDS011;10839;43.206;23.550;2023-12-22T10:09:51;1.65;;;0.90;;
21360;SDS011;10839;43.206;23.550;2023-12-22T10:12:19;3.05;;;1.13;;
21360;SDS011;10839;43.206;23.550;2023-12-22T10:14:45;1.50;;;0.90;;
21360;SDS011;10839;43.206;23.550;2023-12-22T10:17:12;3.95;;;0.80;;
21360;SDS011;10839;43.206;23.550;2023-12-22T10:19:39;1.52;;;1.08;;
21360;SDS011;10839;43.206;23.550;2023-12-22T10:22:04;7.00;;;3.20;;
21360;SDS011;10839;43.206;23.550;2023-12-22T10:24:40;7.63;;;4.65;;
21360;SDS011;10839;43.206;23.550;2023-12-22T10:27:12;14.50;;;9.35;;
21360;SDS011;10839;43.206;23.550;2023-12-22T10:29:38;49.40;;;30.98;;
21360;SDS011;10839;43.206;23.550;2023-12-22T10:32:04;5.97;;;3.85;;
21360;SDS011;10839;43.206;23.550;2023-12-22T10:34:31;7.50;;;3.47;;
21360;SDS011;10839;43.206;23.550;2023-12-22T10:36:58;4.68;;;3.42;;
21360;SDS011;10839;43.206;23.550;2023-12-22T10:39:28;1.90;;;1.70;;
21360;SDS011;10839;43.206;23.550;2023-12-22T10:42:00;4.10;;;1.90;;
21360;SDS011;10839;43.206;23.550;2023-12-22T10:44:29;5.35;;;3.10;;
21360;SDS011;10839;43.206;23.550;2023-12-22T10:46:57;4.50;;;3.20;;
21360;SDS011;10839;43.206;23.550;2023-12-22T10:49:24;2.53;;;1.60;;
21360;SDS011;10839;43.206;23.550;2023-12-22T10:51:50;5.35;;;2.22;;
21360;SDS011;10839;43.206;23.550;2023-12-22T10:54:16;3.38;;;2.42;;
21360;SDS011;10839;43.206;23.550;2023-12-22T10:56:43;5.55;;;3.47;;
21360;SDS011;10839;43.206;23.550;2023-12-22T10:59:08;6.53;;;4.03;;
21360;SDS011;10839;43.206;23.550;2023-12-22T11:01:37;5.68;;;3.10;;
21360;SDS011;10839;43.206;23.550;2023-12-22T11:04:07;2.45;;;1.92;;
21360;SDS011;10839;43.206;23.550;2023-12-22T11:06:39;3.15;;;1.90;;
21360;SDS011;10839;43.206;23.550;2023-12-22T11:09:08;2.80;;;1.60;;
21360;SDS011;10839;43.206;23.550;2023-12-22T11:11:35;4.40;;;2.13;;
21360;SDS011;10839;43.206;23.550;2023-12-22T11:14:02;3.38;;;1.98;;
21360;SDS011;10839;43.206;23.550;2023-12-22T11:16:28;2.88;;;1.85;;
21360;SDS011;10839;43.206;23.550;2023-12-22T11:18:55;1.88;;;1.30;;
21360;SDS011;10839;43.206;23.550;2023-12-22T11:21:22;2.72;;;1.25;;
21360;SDS011;10839;43.206;23.550;2023-12-22T11:23:51;2.95;;;1.38;;
21360;SDS011;10839;43.206;23.550;2023-12-22T11:26:19;2.35;;;1.70;;
21360;SDS011;10839;43.206;23.550;2023-12-22T11:28:46;4.30;;;1.60;;
21360;SDS011;10839;43.206;23.550;2023-12-22T11:31:13;5.93;;;2.22;;
21360;SDS011;10839;43.206;23.550;2023-12-22T11:33:44;8.27;;;2.20;;
21360;SDS011;10839;43.206;23.550;2023-12-22T11:36:15;2.38;;;1.58;;
21360;SDS011;10839;43.206;23.550;2023-12-22T11:38:42;2.60;;;1.60;;
21360;SDS011;10839;43.206;23.550;2023-12-22T11:41:10;4.93;;;2.95;;
21360;SDS011;10839;43.206;23.550;2023-12-22T11:43:40;5.68;;;2.35;;
21360;SDS011;10839;43.206;23.550;2023-12-22T11:46:06;7.30;;;2.72;;
21360;SDS011;10839;43.206;23.550;2023-12-22T11:48:31;5.30;;;2.10;;
21360;SDS011;10839;43.206;23.550;2023-12-22T11:50:58;1.95;;;1.75;;
21360;SDS011;10839;43.206;23.550;2023-12-22T11:53:29;4.25;;;2.67;;
21360;SDS011;10839;43.206;23.550;2023-12-22T11:58:37;6.35;;;2.70;;
21360;SDS011;10839;43.206;23.550;2023-12-22T12:01:08;5.15;;;2.80;;
21360;SDS011;10839;43.206;23.550;2023-12-22T12:03:40;5.30;;;2.97;;
21360;SDS011;10839;43.206;23.550;2023-12-22T12:08:58;5.13;;;1.80;;
21360;SDS011;10839;43.206;23.550;2023-12-22T12:14:32;5.38;;;1.98;;
21360;SDS011;10839;43.206;23.550;2023-12-22T12:17:06;2.78;;;1.70;;
21360;SDS011;10839;43.206;23.550;2023-12-22T12:19:39;5.75;;;3.47;;
21360;SDS011;10839;43.206;23.550;2023-12-22T12:22:19;7.35;;;3.10;;
21360;SDS011;10839;43.206;23.550;2023-12-22T12:24:49;5.78;;;3.42;;
21360;SDS011;10839;43.206;23.550;2023-12-22T12:27:21;11.60;;;3.78;;
21360;SDS011;10839;43.206;23.550;2023-12-22T12:29:46;7.70;;;4.35;;
21360;SDS011;10839;43.206;23.550;2023-12-22T12:32:15;10.52;;;4.72;;
21360;SDS011;10839;43.206;23.550;2023-12-22T12:34:44;5.78;;;3.40;;
21360;SDS011;10839;43.206;23.550;2023-12-22T12:37:12;8.32;;;3.63;;
21360;SDS011;10839;43.206;23.550;2023-12-22T12:39:37;6.32;;;3.75;;
21360;SDS011;10839;43.206;23.550;2023-12-22T12:42:06;6.40;;;3.40;;
21360;SDS011;10839;43.206;23.550;2023-12-22T12:44:33;11.77;;;5.78;;
21360;SDS011;10839;43.206;23.550;2023-12-22T12:47:01;11.90;;;5.07;;
21360;SDS011;10839;43.206;23.550;2023-12-22T12:49:38;16.88;;;9.40;;
21360;SDS011;10839;43.206;23.550;2023-12-22T12:52:04;59.53;;;32.35;;
21360;SDS011;10839;43.206;23.550;2023-12-22T12:54:30;29.52;;;16.35;;
21360;SDS011;10839;43.206;23.550;2023-12-22T12:56:56;16.25;;;7.03;;
21360;SDS011;10839;43.206;23.550;2023-12-22T12:59:22;28.17;;;14.07;;
21360;SDS011;10839;43.206;23.550;2023-12-22T13:01:48;13.55;;;7.40;;
21360;SDS011;10839;43.206;23.550;2023-12-22T13:04:14;19.02;;;9.15;;
21360;SDS011;10839;43.206;23.550;2023-12-22T13:06:43;21.77;;;12.25;;
21360;SDS011;10839;43.206;23.550;2023-12-22T13:09:09;17.92;;;7.93;;
21360;SDS011;10839;43.206;23.550;2023-12-22T13:11:34;16.20;;;7.85;;
21360;SDS011;10839;43.206;23.550;2023-12-22T13:14:01;15.95;;;6.22;;
21360;SDS011;10839;43.206;23.550;2023-12-22T13:16:27;10.27;;;5.13;;
21360;SDS011;10839;43.206;23.550;2023-12-22T13:18:58;7.82;;;3.90;;
21360;SDS011;10839;43.206;23.550;2023-12-22T13:21:25;17.33;;;10.32;;
21360;SDS011;10839;43.206;23.550;2023-12-22T13:26:38;5.90;;;3.33;;
21360;SDS011;10839;43.206;23.550;2023-12-22T13:29:05;5.63;;;3.22;;
21360;SDS011;10839;43.206;23.550;2023-12-22T13:31:31;9.15;;;4.25;;
21360;SDS011;10839;43.206;23.550;2023-12-22T13:33:58;12.70;;;7.13;;
21360;SDS011;10839;43.206;23.550;2023-12-22T13:36:24;16.50;;;9.93;;
21360;SDS011;10839;43.206;23.550;2023-12-22T13:38:50;16.02;;;7.90;;
21360;SDS011;10839;43.206;23.550;2023-12-22T13:41:16;11.57;;;6.45;;
21360;SDS011;10839;43.206;23.550;2023-12-22T13:43:42;12.88;;;6.38;;
21360;SDS011;10839;43.206;23.550;2023-12-22T13:46:10;7.63;;;4.55;;
21360;SDS011;10839;43.206;23.550;2023-12-22T13:48:41;12.70;;;5.05;;
21360;SDS011;10839;43.206;23.550;2023-12-22T13:51:07;57.40;;;30.30;;
21360;SDS011;10839;43.206;23.550;2023-12-22T13:53:33;42.63;;;20.55;;
21360;SDS011;10839;43.206;23.550;2023-12-22T13:55:58;40.35;;;21.63;;
21360;SDS011;10839;43.206;23.550;2023-12-22T13:58:25;14.57;;;7.57;;
21360;SDS011;10839;43.206;23.550;2023-12-22T14:00:51;15.68;;;7.63;;
21360;SDS011;10839;43.206;23.550;2023-12-22T14:03:17;14.82;;;6.10;;
21360;SDS011;10839;43.206;23.550;2023-12-22T14:05:49;12.48;;;6.50;;
21360;SDS011;10839;43.206;23.550;2023-12-22T14:08:17;23.13;;;10.07;;
21360;SDS011;10839;43.206;23.550;2023-12-22T14:10:46;12.32;;;6.70;;
21360;SDS011;10839;43.206;23.550;2023-12-22T14:13:15;13.32;;;6.30;;
21360;SDS011;10839;43.206;23.550;2023-12-22T14:15:41;15.20;;;8.30;;
21360;SDS011;10839;43.206;23.550;2023-12-22T14:18:08;9.95;;;6.25;;
21360;SDS011;10839;43.206;23.550;2023-12-22T14:20:34;9.60;;;4.47;;
21360;SDS011;10839;43.206;23.550;2023-12-22T14:22:59;5.55;;;3.13;;
21360;SDS011;10839;43.206;23.550;2023-12-22T14:25:25;11.02;;;5.60;;
21360;SDS011;10839;43.206;23.550;2023-12-22T14:27:52;1.65;;;0.90;;
21360;SDS011;10839;43.206;23.550;2023-12-22T14:30:22;5.43;;;1.33;;
21360;SDS011;10839;43.206;23.550;2023-12-22T14:32:48;6.68;;;1.50;;
21360;SDS011;10839;43.206;23.550;2023-12-22T14:35:14;5.85;;;1.90;;
21360;SDS011;10839;43.206;23.550;2023-12-22T14:37:39;8.55;;;3.25;;
21360;SDS011;10839;43.206;23.550;2023-12-22T14:40:05;4.75;;;1.70;;
21360;SDS011;10839;43.206;23.550;2023-12-22T14:42:31;2.97;;;1.98;;